createdAt,value
2019-05-29T00:00:27.418Z,39.24
2019-05-29T00:02:55.632Z,39.42
2019-05-29T00:05:22.650Z,39.44
2019-05-29T00:07:49.822Z,39.52
2019-05-29T00:10:18.345Z,39.43
2019-05-29T00:12:45.691Z,39.62
2019-05-29T00:15:12.706Z,39.62
2019-05-29T00:17:39.971Z,39.51
2019-05-29T00:20:08.200Z,39.59
2019-05-29T00:22:35.427Z,39.75
2019-05-29T00:25:02.508Z,39.55
2019-05-29T00:27:30.495Z,39.64
2019-05-29T00:29:57.966Z,39.51
2019-05-29T00:32:25.970Z,39.56
2019-05-29T00:34:53.289Z,39.62
2019-05-29T00:37:20.840Z,39.56
2019-05-29T00:39:48.061Z,39.46
2019-05-29T00:42:16.013Z,39.28
2019-05-29T00:44:43.549Z,39.15
2019-05-29T00:47:11.551Z,39.27
2019-05-29T00:49:38.658Z,39.29
2019-05-29T00:52:05.716Z,39.51
2019-05-29T00:54:32.743Z,39.61
2019-05-29T00:56:59.876Z,39.63
2019-05-29T00:59:26.936Z,39.70
2019-05-29T01:01:54.472Z,39.56
2019-05-29T01:04:21.930Z,39.57
2019-05-29T01:06:48.982Z,39.58
2019-05-29T01:09:16.478Z,39.61
2019-05-29T01:11:43.606Z,39.66
2019-05-29T01:14:11.076Z,39.61
2019-05-29T01:16:38.197Z,39.69
2019-05-29T01:19:23.618Z,39.69
2019-05-29T01:21:50.673Z,39.51
2019-05-29T01:24:18.419Z,39.40
2019-05-29T01:26:46.242Z,39.53
2019-05-29T01:29:14.959Z,39.58
2019-05-29T01:31:42.335Z,39.58
2019-05-29T01:34:10.058Z,39.64
2019-05-29T01:36:37.731Z,39.63
2019-05-29T01:39:05.439Z,39.72
2019-05-29T01:41:32.642Z,39.78
2019-05-29T01:44:19.340Z,39.74
2019-05-29T01:46:47.204Z,39.89
2019-05-29T01:49:15.898Z,39.80
2019-05-29T01:51:43.846Z,39.81
2019-05-29T01:54:11.359Z,39.75
2019-05-29T01:56:39.125Z,39.80
2019-05-29T01:59:06.520Z,39.76
2019-05-29T02:01:33.578Z,39.68
2019-05-29T02:04:01.224Z,39.67
2019-05-29T02:06:28.608Z,39.69
2019-05-29T02:08:55.756Z,39.80
2019-05-29T02:11:23.366Z,39.85
2019-05-29T02:13:50.461Z,39.97
2019-05-29T02:16:18.522Z,39.88
2019-05-29T02:18:45.964Z,39.95
2019-05-29T02:21:13.020Z,39.91
2019-05-29T02:23:40.133Z,39.92
2019-05-29T02:26:07.217Z,40.01
2019-05-29T02:28:34.425Z,40.01
2019-05-29T02:31:01.474Z,39.93
2019-05-29T02:33:28.524Z,40.01
2019-05-29T02:35:55.580Z,39.90
2019-05-29T02:38:24.639Z,39.86
2019-05-29T02:40:51.803Z,39.86
2019-05-29T02:43:19.305Z,39.87
2019-05-29T02:45:54.129Z,39.85
2019-05-29T02:48:16.825Z,39.76
2019-05-29T02:50:43.873Z,39.81
2019-05-29T02:53:10.927Z,39.80
2019-05-29T02:55:37.984Z,39.85
2019-05-29T02:58:05.230Z,39.83
2019-05-29T03:00:51.512Z,39.92
2019-05-29T03:03:18.809Z,39.94
2019-05-29T03:05:46.481Z,39.98
2019-05-29T03:08:13.681Z,40.00
2019-05-29T03:10:40.738Z,39.92
2019-05-29T03:13:08.256Z,40.03
2019-05-29T03:15:35.550Z,39.94
2019-05-29T03:18:02.665Z,40.01
2019-05-29T03:20:30.380Z,40.06
2019-05-29T03:22:57.580Z,39.93
2019-05-29T03:25:26.422Z,39.91
2019-05-29T03:27:53.577Z,39.88
2019-05-29T03:30:20.670Z,39.83
2019-05-29T03:32:48.976Z,39.93
2019-05-29T03:35:16.536Z,39.91
2019-05-29T03:37:43.942Z,39.93
2019-05-29T03:40:11.161Z,39.90
2019-05-29T03:42:39.372Z,39.91
2019-05-29T03:45:06.898Z,40.05
2019-05-29T03:47:35.112Z,40.00
2019-05-29T03:50:02.316Z,40.05
2019-05-29T03:52:30.257Z,40.01
2019-05-29T03:54:57.552Z,40.17
2019-05-29T03:57:25.207Z,40.08
2019-05-29T03:59:52.250Z,40.06
2019-05-29T04:02:19.873Z,39.96
2019-05-29T04:04:47.035Z,39.95
2019-05-29T04:07:14.131Z,40.00
2019-05-29T04:09:41.273Z,39.92
2019-05-29T04:12:09.344Z,39.77
2019-05-29T04:14:37.856Z,39.76
2019-05-29T04:17:05.076Z,39.71
2019-05-29T04:19:33.914Z,39.91
2019-05-29T04:22:07.952Z,40.04
2019-05-29T04:24:35.982Z,40.07
2019-05-29T04:27:03.725Z,40.08
2019-05-29T04:29:34.203Z,40.21
2019-05-29T04:32:01.781Z,40.28
2019-05-29T04:34:29.573Z,40.23
2019-05-29T04:36:58.328Z,40.26
2019-05-29T04:39:25.386Z,40.38
2019-05-29T04:41:52.746Z,40.28
2019-05-29T04:44:20.385Z,40.21
2019-05-29T04:46:47.492Z,40.16
2019-05-29T04:49:19.894Z,40.16
2019-05-29T04:51:44.354Z,40.13
2019-05-29T04:54:11.405Z,40.21
2019-05-29T04:56:39.433Z,40.15
2019-05-29T04:59:06.743Z,40.12
2019-05-29T05:01:35.048Z,40.20
2019-05-29T05:04:02.256Z,40.31
2019-05-29T05:06:29.289Z,40.29
2019-05-29T05:08:56.504Z,40.30
2019-05-29T05:11:23.681Z,40.18
2019-05-29T05:13:50.824Z,40.32
2019-05-29T05:16:18.239Z,40.17
2019-05-29T05:18:45.260Z,40.32
2019-05-29T05:21:12.455Z,40.34
2019-05-29T05:23:40.605Z,40.39
2019-05-29T05:26:07.918Z,40.41
2019-05-29T05:28:36.408Z,40.33
2019-05-29T05:31:03.641Z,40.29
2019-05-29T05:33:31.060Z,40.62
2019-05-29T05:35:58.103Z,40.75
2019-05-29T05:38:25.418Z,40.22
2019-05-29T05:40:52.445Z,40.66
2019-05-29T05:43:24.070Z,40.14
2019-05-29T05:45:49.080Z,40.40
2019-05-29T05:48:16.422Z,40.48
2019-05-29T05:50:43.852Z,40.57
2019-05-29T05:53:11.236Z,40.44
2019-05-29T05:55:39.770Z,40.45
2019-05-29T05:58:07.369Z,40.25
2019-05-29T06:00:35.955Z,40.04
2019-05-29T06:03:03.014Z,39.81
2019-05-29T06:05:30.360Z,39.60
2019-05-29T06:07:57.496Z,39.53
2019-05-29T06:10:24.574Z,39.55
2019-05-29T06:12:51.725Z,39.57
2019-05-29T06:15:18.756Z,39.53
2019-05-29T06:18:04.515Z,39.61
2019-05-29T06:20:15.298Z,39.58
2019-05-29T06:22:43.652Z,39.51
2019-05-29T06:25:11.477Z,39.41
2019-05-29T06:27:39.187Z,39.32
2019-05-29T06:30:06.885Z,39.25
2019-05-29T06:32:35.258Z,39.45
2019-05-29T06:35:02.395Z,39.83
2019-05-29T06:37:29.823Z,39.57
2019-05-29T06:39:57.709Z,39.54
2019-05-29T06:42:25.352Z,39.47
2019-05-29T06:44:52.545Z,39.40
2019-05-29T06:47:20.378Z,39.45
2019-05-29T06:49:47.483Z,39.47
2019-05-29T06:52:14.582Z,39.45
2019-05-29T06:54:43.974Z,39.50
2019-05-29T06:57:11.266Z,39.53
2019-05-29T06:59:38.359Z,39.50
2019-05-29T07:02:05.584Z,39.46
2019-05-29T07:04:32.639Z,39.41
2019-05-29T07:06:59.697Z,39.37
2019-05-29T07:09:26.745Z,39.45
2019-05-29T07:11:54.419Z,39.44
2019-05-29T07:14:22.021Z,39.50
2019-05-29T07:16:55.675Z,39.42
2019-05-29T07:19:25.777Z,39.24
2019-05-29T07:21:47.268Z,39.23
2019-05-29T07:24:14.466Z,39.23
2019-05-29T07:26:45.453Z,39.27
2019-05-29T07:29:13.430Z,39.31
2019-05-29T07:31:40.905Z,39.29
2019-05-29T07:34:08.234Z,39.25
2019-05-29T07:36:37.832Z,39.24
2019-05-29T07:39:06.673Z,39.38
2019-05-29T07:41:33.753Z,39.29
2019-05-29T07:44:01.286Z,39.28
2019-05-29T07:46:28.994Z,39.32
2019-05-29T07:48:56.269Z,39.23
2019-05-29T07:51:23.315Z,39.17
2019-05-29T07:53:51.000Z,39.05
2019-05-29T07:56:22.452Z,39.01
2019-05-29T07:58:57.018Z,39.12
2019-05-29T08:01:15.912Z,39.14
2019-05-29T08:03:43.533Z,39.23
2019-05-29T08:06:10.634Z,39.16
2019-05-29T08:08:37.645Z,39.02
2019-05-29T08:11:05.243Z,38.93
2019-05-29T08:13:32.274Z,39.00
2019-05-29T08:16:03.103Z,38.94
2019-05-29T08:18:29.185Z,39.00
2019-05-29T08:20:56.220Z,38.93
2019-05-29T08:23:23.416Z,38.84
2019-05-29T08:25:51.780Z,38.72
2019-05-29T08:28:19.221Z,38.39
2019-05-29T08:30:51.767Z,38.16
2019-05-29T08:33:15.267Z,38.09
2019-05-29T08:35:43.090Z,38.17
2019-05-29T08:38:10.265Z,38.18
2019-05-29T08:40:37.295Z,38.16
2019-05-29T08:43:04.317Z,37.95
2019-05-29T08:45:31.686Z,37.64
2019-05-29T08:47:58.901Z,37.39
2019-05-29T08:50:26.008Z,37.24
2019-05-29T08:52:53.032Z,37.05
2019-05-29T08:55:20.369Z,36.96
2019-05-29T08:57:48.416Z,36.88
2019-05-29T09:00:16.620Z,36.85
2019-05-29T09:02:44.670Z,36.65
2019-05-29T09:05:12.025Z,36.66
2019-05-29T09:07:39.065Z,36.67
2019-05-29T09:10:06.452Z,36.52
2019-05-29T09:12:33.505Z,36.52
2019-05-29T09:15:00.575Z,36.34
2019-05-29T09:17:27.564Z,36.21
2019-05-29T09:19:54.661Z,36.07
2019-05-29T09:22:22.900Z,36.03
2019-05-29T09:24:50.197Z,36.08
2019-05-29T09:27:17.253Z,35.90
2019-05-29T09:29:44.991Z,35.76
2019-05-29T09:32:13.487Z,35.66
2019-05-29T09:34:41.411Z,35.79
2019-05-29T09:37:08.769Z,35.88
2019-05-29T09:39:36.755Z,35.75
2019-05-29T09:42:03.939Z,35.62
2019-05-29T09:44:38.763Z,35.60
2019-05-29T09:47:00.316Z,35.42
2019-05-29T09:49:27.364Z,35.31
2019-05-29T09:51:56.061Z,35.27
2019-05-29T09:54:23.733Z,35.23
2019-05-29T09:56:52.250Z,35.06
2019-05-29T09:59:20.007Z,35.07
2019-05-29T10:01:48.000Z,35.37
2019-05-29T10:04:15.037Z,35.33
2019-05-29T10:06:43.166Z,35.38
2019-05-29T10:09:10.207Z,35.39
2019-05-29T10:11:37.558Z,35.30
2019-05-29T10:14:05.089Z,35.36
2019-05-29T10:16:32.316Z,35.39
2019-05-29T10:19:00.366Z,35.32
2019-05-29T10:21:38.990Z,35.15
2019-05-29T10:23:58.304Z,35.06
2019-05-29T10:26:27.425Z,35.03
2019-05-29T10:29:06.736Z,34.98
2019-05-29T10:31:23.580Z,34.91
2019-05-29T10:33:50.661Z,34.94
2019-05-29T10:36:18.165Z,34.90
2019-05-29T10:38:46.403Z,34.96
2019-05-29T10:41:13.700Z,34.87
2019-05-29T10:43:40.805Z,34.75
2019-05-29T10:46:08.015Z,34.58
2019-05-29T10:48:35.349Z,34.47
2019-05-29T10:51:02.411Z,34.37
2019-05-29T10:53:29.850Z,34.09
2019-05-29T10:55:56.937Z,34.11
2019-05-29T10:58:23.996Z,34.13
2019-05-29T11:00:51.288Z,33.94
2019-05-29T11:03:19.016Z,33.92
2019-05-29T11:05:47.469Z,34.01
2019-05-29T11:08:14.749Z,34.04
2019-05-29T11:10:42.014Z,33.94
2019-05-29T11:13:09.335Z,33.95
2019-05-29T11:15:36.507Z,34.02
2019-05-29T11:18:03.568Z,33.90
2019-05-29T11:20:30.631Z,34.17
2019-05-29T11:22:57.915Z,34.22
2019-05-29T11:25:27.747Z,34.34
2019-05-29T11:27:54.842Z,34.32
2019-05-29T11:30:22.373Z,34.19
2019-05-29T11:32:52.525Z,34.28
2019-05-29T11:35:20.042Z,34.28
2019-05-29T11:37:47.109Z,33.98
2019-05-29T11:40:14.348Z,33.90
2019-05-29T11:42:41.708Z,33.87
2019-05-29T11:45:09.271Z,33.96
2019-05-29T11:47:39.402Z,34.17
2019-05-29T11:50:19.094Z,34.13
2019-05-29T11:52:42.960Z,34.16
2019-05-29T11:55:09.172Z,34.21
2019-05-29T11:57:39.564Z,34.40
2019-05-29T12:00:17.767Z,34.27
2019-05-29T12:02:35.696Z,34.41
2019-05-29T12:05:04.714Z,34.47
2019-05-29T12:07:32.131Z,34.55
2019-05-29T12:09:59.580Z,34.66
2019-05-29T12:12:26.976Z,34.47
2019-05-29T12:15:07.333Z,34.16
2019-05-29T12:17:23.494Z,34.02
2019-05-29T12:19:51.899Z,34.28
2019-05-29T12:22:19.051Z,34.64
2019-05-29T12:24:46.450Z,35.02
2019-05-29T12:27:13.750Z,35.40
2019-05-29T12:29:40.868Z,35.74
2019-05-29T12:32:10.308Z,35.86
2019-05-29T12:34:45.159Z,36.03
2019-05-29T12:37:06.186Z,36.20
2019-05-29T12:39:33.223Z,36.33
2019-05-29T12:42:01.790Z,36.41
2019-05-29T12:44:28.915Z,36.48
2019-05-29T12:46:55.968Z,36.55
2019-05-29T12:49:23.329Z,36.56
2019-05-29T12:51:50.357Z,36.51
2019-05-29T12:54:17.407Z,36.49
2019-05-29T12:56:44.475Z,36.40
2019-05-29T12:59:11.508Z,36.12
2019-05-29T13:01:38.963Z,36.08
2019-05-29T13:04:06.144Z,35.92
2019-05-29T13:06:33.984Z,35.57
2019-05-29T13:09:02.544Z,35.33
2019-05-29T13:11:29.937Z,35.30
2019-05-29T13:13:58.087Z,35.32
2019-05-29T13:16:25.511Z,35.31
2019-05-29T13:18:52.555Z,35.29
2019-05-29T13:21:19.921Z,35.12
2019-05-29T13:23:47.009Z,35.06
2019-05-29T13:26:14.066Z,34.88
2019-05-29T13:28:41.106Z,34.73
2019-05-29T13:31:08.478Z,34.68
2019-05-29T13:33:35.799Z,34.58
2019-05-29T13:36:04.500Z,34.67
2019-05-29T13:38:32.271Z,34.71
2019-05-29T13:41:00.425Z,34.84
2019-05-29T13:43:27.902Z,34.79
2019-05-29T13:45:54.931Z,34.61
2019-05-29T13:48:23.493Z,34.38
2019-05-29T13:50:51.078Z,34.44
2019-05-29T13:53:18.127Z,34.25
2019-05-29T13:55:45.520Z,34.35
2019-05-29T13:58:12.816Z,34.43
2019-05-29T14:00:39.974Z,34.56
2019-05-29T14:03:08.829Z,34.60
2019-05-29T14:05:36.026Z,34.85
2019-05-29T14:08:03.098Z,35.01
2019-05-29T14:10:30.217Z,35.01
2019-05-29T14:12:57.252Z,35.06
2019-05-29T14:15:24.633Z,35.31
2019-05-29T14:17:51.976Z,35.33
2019-05-29T14:20:19.713Z,35.40
2019-05-29T14:22:46.907Z,35.56
2019-05-29T14:25:14.321Z,35.62
2019-05-29T14:27:41.423Z,35.55
2019-05-29T14:30:11.297Z,35.69
2019-05-29T14:32:38.388Z,35.56
2019-05-29T14:35:07.744Z,35.43
2019-05-29T14:37:35.413Z,34.23
2019-05-29T14:40:03.982Z,33.70
2019-05-29T14:42:31.092Z,33.51
2019-05-29T14:44:58.234Z,33.34
2019-05-29T14:47:25.298Z,33.47
2019-05-29T14:49:52.667Z,33.86
2019-05-29T14:52:19.745Z,34.10
2019-05-29T14:54:46.894Z,34.29
2019-05-29T14:57:25.228Z,34.51
2019-05-29T14:59:44.027Z,34.67
2019-05-29T15:02:18.876Z,34.75
2019-05-29T15:04:40.493Z,35.01
2019-05-29T15:07:08.015Z,34.92
2019-05-29T15:09:35.276Z,34.70
2019-05-29T15:12:02.431Z,34.46
2019-05-29T15:14:29.552Z,34.12
2019-05-29T15:16:56.993Z,34.12
2019-05-29T15:19:24.406Z,33.88
2019-05-29T15:21:51.988Z,33.75
2019-05-29T15:24:19.286Z,33.82
2019-05-29T15:26:46.427Z,33.94
2019-05-29T15:29:16.347Z,33.91
2019-05-29T15:31:42.911Z,33.82
2019-05-29T15:34:10.344Z,33.80
2019-05-29T15:36:37.434Z,33.93
2019-05-29T15:39:06.621Z,34.20
2019-05-29T15:41:33.817Z,34.34
2019-05-29T15:44:00.868Z,34.35
2019-05-29T15:46:28.380Z,34.39
2019-05-29T15:48:55.508Z,34.40
2019-05-29T15:51:22.750Z,34.37
2019-05-29T15:53:49.810Z,34.36
2019-05-29T15:56:27.126Z,34.50
2019-05-29T15:58:46.472Z,34.34
2019-05-29T16:01:15.648Z,34.24
2019-05-29T16:03:43.626Z,34.34
2019-05-29T16:06:11.744Z,34.18
2019-05-29T16:08:39.390Z,34.42
2019-05-29T16:11:06.529Z,34.02
2019-05-29T16:13:33.967Z,34.04
2019-05-29T16:16:01.197Z,33.96
2019-05-29T16:18:29.715Z,34.66
2019-05-29T16:20:57.359Z,34.54
2019-05-29T16:23:35.337Z,34.75
2019-05-29T16:25:53.398Z,35.04
2019-05-29T16:28:21.459Z,35.42
2019-05-29T16:30:48.977Z,35.30
2019-05-29T16:33:17.255Z,35.50
2019-05-29T16:35:44.493Z,35.17
2019-05-29T16:38:11.513Z,35.43
2019-05-29T16:40:38.548Z,35.67
2019-05-29T16:43:05.724Z,35.88
2019-05-29T16:45:32.822Z,36.07
2019-05-29T16:47:59.928Z,36.88
2019-05-29T16:50:27.388Z,37.71
2019-05-29T16:52:54.651Z,37.57
2019-05-29T16:55:23.062Z,37.94
2019-05-29T16:57:50.356Z,38.06
2019-05-29T17:00:17.719Z,37.92
2019-05-29T17:02:44.897Z,38.46
2019-05-29T17:05:13.650Z,38.28
2019-05-29T17:07:41.144Z,38.39
2019-05-29T17:10:08.499Z,38.56
2019-05-29T17:12:35.878Z,38.66
2019-05-29T17:15:03.949Z,38.32
2019-05-29T17:17:31.021Z,38.58
2019-05-29T17:19:58.113Z,38.77
2019-05-29T17:22:25.237Z,38.62
2019-05-29T17:24:52.267Z,38.21
2019-05-29T17:27:19.402Z,38.03
2019-05-29T17:29:46.465Z,37.92
2019-05-29T17:32:14.754Z,38.02
2019-05-29T17:34:42.027Z,38.14
2019-05-29T17:37:09.434Z,37.93
2019-05-29T17:39:36.699Z,37.97
2019-05-29T17:42:03.771Z,37.55
2019-05-29T17:44:31.158Z,37.17
2019-05-29T17:46:58.422Z,37.39
2019-05-29T17:49:32.744Z,37.13
2019-05-29T17:51:54.958Z,37.02
2019-05-29T17:54:22.279Z,37.48
2019-05-29T17:56:49.578Z,37.24
2019-05-29T17:59:17.976Z,36.81
2019-05-29T18:01:45.716Z,37.14
2019-05-29T18:04:15.967Z,36.70
2019-05-29T18:06:43.613Z,36.56
2019-05-29T18:09:11.036Z,36.55
2019-05-29T18:11:38.069Z,36.89
2019-05-29T18:14:07.556Z,36.74
2019-05-29T18:16:34.285Z,36.84
2019-05-29T18:19:01.604Z,37.18
2019-05-29T18:21:28.672Z,37.18
2019-05-29T18:23:55.741Z,36.51
2019-05-29T18:26:24.107Z,36.53
2019-05-29T18:28:51.376Z,36.73
2019-05-29T18:31:18.781Z,37.20
2019-05-29T18:33:45.850Z,37.44
2019-05-29T18:36:13.251Z,37.40
2019-05-29T18:38:40.890Z,37.49
2019-05-29T18:41:08.260Z,37.35
2019-05-29T18:43:35.651Z,37.39
2019-05-29T18:46:03.309Z,37.35
2019-05-29T18:48:32.466Z,37.90
2019-05-29T18:50:59.698Z,37.91
2019-05-29T18:53:27.057Z,37.86
2019-05-29T18:55:54.578Z,37.93
2019-05-29T18:58:22.275Z,38.07
2019-05-29T19:00:49.402Z,37.84
2019-05-29T19:03:17.228Z,37.53
2019-05-29T19:05:44.286Z,37.72
2019-05-29T19:08:11.342Z,37.92
2019-05-29T19:10:38.693Z,37.86
2019-05-29T19:13:05.881Z,37.90
2019-05-29T19:15:33.242Z,37.82
2019-05-29T19:18:00.391Z,37.72
2019-05-29T19:20:28.521Z,37.65
2019-05-29T19:23:01.282Z,37.71
2019-05-29T19:25:30.828Z,37.51
2019-05-29T19:27:58.369Z,37.28
2019-05-29T19:30:26.897Z,37.28
2019-05-29T19:32:54.140Z,37.39
2019-05-29T19:35:21.295Z,37.38
2019-05-29T19:37:49.009Z,37.09
2019-05-29T19:40:17.085Z,37.22
2019-05-29T19:42:44.531Z,37.44
2019-05-29T19:45:11.637Z,37.73
2019-05-29T19:47:38.699Z,37.64
2019-05-29T19:50:06.092Z,37.53
2019-05-29T19:52:33.725Z,37.45
2019-05-29T19:55:00.803Z,37.45
2019-05-29T19:57:28.151Z,37.54
2019-05-29T19:59:55.808Z,37.48
2019-05-29T20:02:22.857Z,37.69
2019-05-29T20:04:49.926Z,37.88
2019-05-29T20:07:17.065Z,38.13
2019-05-29T20:09:44.231Z,38.43
2019-05-29T20:12:11.550Z,38.59
2019-05-29T20:14:39.126Z,38.73
2019-05-29T20:17:06.177Z,38.90
2019-05-29T20:19:36.350Z,39.10
2019-05-29T20:22:03.422Z,39.27
2019-05-29T20:24:30.735Z,39.49
2019-05-29T20:26:58.034Z,39.55
2019-05-29T20:29:25.108Z,39.65
2019-05-29T20:31:52.267Z,39.67
2019-05-29T20:34:19.340Z,39.85
2019-05-29T20:36:46.700Z,39.88
2019-05-29T20:39:13.727Z,39.98
2019-05-29T20:41:43.246Z,40.05
2019-05-29T20:44:10.009Z,40.06
2019-05-29T20:46:37.015Z,40.41
2019-05-29T20:49:04.078Z,40.49
2019-05-29T20:51:32.754Z,40.58
2019-05-29T20:54:00.104Z,40.64
2019-05-29T20:56:27.131Z,40.46
2019-05-29T20:58:54.377Z,40.70
2019-05-29T21:01:21.711Z,40.63
2019-05-29T21:03:48.928Z,40.79
2019-05-29T21:06:16.312Z,40.77
2019-05-29T21:08:43.865Z,40.75
2019-05-29T21:11:11.523Z,40.72
2019-05-29T21:13:39.481Z,40.71
2019-05-29T21:16:07.564Z,40.65
2019-05-29T21:18:35.828Z,40.78
2019-05-29T21:21:03.023Z,40.74
2019-05-29T21:23:30.072Z,40.78
2019-05-29T21:25:57.277Z,40.68
2019-05-29T21:28:37.233Z,40.58
2019-05-29T21:30:53.226Z,40.69
2019-05-29T21:33:20.259Z,40.84
2019-05-29T21:35:47.549Z,40.95
2019-05-29T21:38:14.569Z,41.11
2019-05-29T21:40:42.509Z,41.03
2019-05-29T21:43:10.027Z,41.12
2019-05-29T21:45:37.062Z,41.25
2019-05-29T21:48:04.695Z,41.16
2019-05-29T21:50:31.732Z,41.29
2019-05-29T21:52:58.757Z,41.33
2019-05-29T21:55:25.836Z,41.38
2019-05-29T21:57:53.018Z,41.29
2019-05-29T22:00:40.121Z,41.28
2019-05-29T22:03:07.243Z,41.14
2019-05-29T22:05:34.300Z,41.10
2019-05-29T22:08:01.324Z,41.12
2019-05-29T22:10:28.683Z,41.04
2019-05-29T22:12:56.447Z,41.22
2019-05-29T22:15:23.829Z,41.46
2019-05-29T22:17:50.914Z,41.51
2019-05-29T22:20:17.925Z,41.51
2019-05-29T22:22:45.564Z,41.62
2019-05-29T22:25:12.852Z,41.54
2019-05-29T22:27:40.277Z,41.67
2019-05-29T22:30:07.536Z,41.50
2019-05-29T22:32:34.658Z,41.68
2019-05-29T22:35:01.997Z,41.73
2019-05-29T22:37:29.514Z,41.68
2019-05-29T22:39:57.644Z,41.55
2019-05-29T22:42:25.426Z,41.58
2019-05-29T22:44:53.601Z,41.40
2019-05-29T22:47:21.042Z,41.75
2019-05-29T22:49:48.091Z,41.74
2019-05-29T22:52:15.350Z,41.67
2019-05-29T22:54:43.557Z,41.79
2019-05-29T22:57:10.879Z,41.78
2019-05-29T22:59:37.935Z,41.83
2019-05-29T23:02:04.991Z,41.96
2019-05-29T23:04:32.038Z,42.08
2019-05-29T23:07:00.327Z,42.05
2019-05-29T23:09:27.538Z,41.97
2019-05-29T23:11:54.636Z,41.90
2019-05-29T23:14:22.058Z,41.97
2019-05-29T23:16:49.303Z,41.89
2019-05-29T23:19:16.384Z,41.83
2019-05-29T23:21:43.953Z,41.91
2019-05-29T23:24:10.998Z,41.86
2019-05-29T23:26:38.082Z,41.73
2019-05-29T23:29:05.118Z,41.71
2019-05-29T23:31:32.548Z,41.45
2019-05-29T23:34:01.032Z,41.49
2019-05-29T23:36:28.154Z,41.32
2019-05-29T23:38:55.285Z,41.29
2019-05-29T23:41:22.339Z,41.26
2019-05-29T23:43:49.376Z,41.33
2019-05-29T23:46:16.586Z,41.38
2019-05-29T23:48:44.189Z,41.42
2019-05-29T23:51:11.281Z,41.49
2019-05-29T23:53:38.344Z,41.49
2019-05-29T23:56:05.737Z,41.41
2019-05-29T23:58:32.785Z,41.51
